Latest Weather Observations for Double Island Point

IDQ60801

Issued at 3:32 pm EST Saturday 4 July 2020 (issued every 10 minutes, with the page automatically refreshed every 10 minutes)

About weather observations | Map of weather stations | Latest weather observations for QLD | Other Formats
Station Details ID: 040068 Name: DOUBLE ISLAND POINT LIGHTHOUSE Lat: -25.93 Lon: 153.19 Height: 95.64 m
Data from the previous 72 hours. | See also: Recent months at Double Island Point
Date/Time
EST
Temp
°C
App
Temp
°C
Dew
Point
°C
Rel
Hum
%
Delta-T
°C
Wind Press
QNH
hPa
Press
MSL
hPa
Rain since
9am
mm
Dir  Spd
km/h
Gust
km/h
Spd
kts
Gust
kts
04/03:30pm 19.8 14.9 2.2 31 8.1 SW 17 20 9 11 1017.8 1017.6 0.0
04/03:00pm 20.0 16.2 4.1 35 7.6 SW 13 20 7 11 1017.8 1017.6 0.0
04/02:30pm 20.4 17.5 4.4 35 7.8 SW 9 11 5 6 1017.8 1017.6 0.0
04/02:00pm 19.8 15.9 3.5 34 7.7 SW 13 20 7 11 1017.9 1017.7 0.0
04/01:30pm 19.6 14.7 4.1 36 7.4 W 19 26 10 14 1018.1 1017.9 0.0
04/01:00pm 19.3 14.3 3.5 35 7.5 SW 19 30 10 16 1018.5 1018.3 0.0
04/12:30pm 18.8 12.5 3.8 37 7.1 SW 26 39 14 21 1018.9 1018.7 0.0
04/12:00pm 18.6 13.9 5.1 41 6.5 WSW 19 30 10 16 1019.4 1019.2 0.0
04/11:30am 17.9 12.9 3.8 39 6.6 WSW 19 32 10 17 1020.2 1020.1 0.0
04/11:00am 17.7 12.8 5.3 44 6.0 SW 20 32 11 17 1020.6 1020.5 0.0
04/10:30am 16.8 12.8 4.8 45 5.7 SSW 15 20 8 11 1020.9 1020.8 0.0
04/10:00am 16.0 11.1 5.0 48 5.2 SSW 20 30 11 16 1021.2 1021.1 0.0
04/09:30am 15.5 9.6 5.7 52 4.7 SSW 26 35 14 19 1021.2 1021.1 0.0
04/09:00am 15.1 7.3 5.0 51 4.8 SW 35 48 19 26 1020.7 1020.6 0.0
04/08:30am 14.9 6.9 5.7 54 4.4 WSW 37 48 20 26 1020.5 1020.4 0.0
04/08:00am 15.1 6.5 6.4 56 4.2 WSW 41 52 22 28 1020.1 1020.0 0.0
04/07:47am 15.4 7.4 5.6 52 4.7 WSW 37 56 20 30 1020.0 1019.9 0.0
04/07:30am 14.9 9.0 7.5 61 3.7 SW 28 35 15 19 1020.2 1020.1 0.0
04/07:00am 15.1 9.1 8.8 66 3.2 SSW 30 41 16 22 1020.0 1019.9 0.0
04/06:30am 15.7 10.3 9.4 66 3.3 SW 28 39 15 21 1019.8 1019.7 0.0
04/06:00am 15.6 10.2 10.8 73 2.6 SW 30 39 16 21 1019.7 1019.6 0.0
04/05:44am 16.4 11.7 10.7 69 3.0 SW 26 44 14 24 1019.7 1019.6 0.0
04/05:30am 17.2 14.4 11.2 68 3.3 W 17 26 9 14 1019.7 1019.6 0.0
04/05:00am 17.2 13.9 11.5 69 3.1 WNW 20 28 11 15 1019.1 1018.9 0.0
04/04:30am 17.6 15.0 11.9 69 3.1 WNW 17 24 9 13 1019.2 1019.0 0.0
04/04:00am 17.8 14.0 12.5 71 2.9 WNW 24 30 13 16 1019.0 1018.8 0.0
04/03:30am 17.8 13.3 12.7 72 2.9 WNW 28 35 15 19 1019.3 1019.1 0.0
04/03:00am 18.1 12.5 13.2 73 2.8 WNW 35 46 19 25 1019.4 1019.2 0.0
04/02:30am 17.9 12.8 13.8 77 2.3 WNW 33 44 18 24 1019.4 1019.2 0.0
04/02:00am 17.7 13.0 13.2 75 2.5 WNW 30 39 16 21 1019.8 1019.7 0.0
04/01:30am 17.2 13.5 13.9 81 1.9 WNW 26 35 14 19 1020.3 1020.2 0.0
04/01:00am 17.2 13.8 14.7 85 1.4 NW 26 33 14 18 1020.4 1020.3 0.0
04/12:30am 17.5 14.1 13.8 79 2.1 NW 24 28 13 15 1020.4 1020.3 0.0
04/12:00am 17.6 14.1 13.3 76 2.4 NW 24 28 13 15 1020.4 1020.3 0.0
 
Date/Time
EST
Temp
°C
App
Temp
°C
Dew
Point
°C
Rel
Hum
%
Delta-T
°C
Wind Press
QNH
hPa
Press
MSL
hPa
Rain since
9am
mm
Dir  Spd
km/h
Gust
km/h
Spd
kts
Gust
kts
03/11:30pm 18.0 14.9 13.5 75 2.6 NNW 22 28 12 15 1020.6 1020.5 0.0
03/11:00pm 18.2 15.7 14.1 77 2.4 NNW 20 28 11 15 1020.7 1020.6 0.0
03/10:30pm 18.2 15.9 14.1 77 2.4 NNW 19 28 10 15 1020.9 1020.8 0.0
03/10:00pm 18.3 16.2 14.6 79 2.1 N 19 28 10 15 1021.0 1020.9 0.0
03/09:30pm 18.7 17.2 15.2 80 2.1 N 17 24 9 13 1021.0 1020.9 0.0
03/09:00pm 19.5 18.6 15.8 79 2.2 N 15 28 8 15 1020.8 1020.7 0.0
03/08:30pm 19.3 19.5 14.3 73 2.9 N 6 9 3 5 1021.3 1021.2 0.0
03/08:00pm 19.4 19.4 14.2 72 3.0 N 7 20 4 11 1021.3 1021.2 0.0
03/07:30pm 19.6 17.9 13.5 68 3.5 N 15 28 8 15 1021.0 1020.9 0.0
03/07:00pm 19.5 18.7 13.9 70 3.2 N 11 26 6 14 1020.8 1020.7 0.0
03/06:30pm 19.5 17.8 13.7 69 3.3 N 15 28 8 15 1020.9 1020.8 0.0
03/06:00pm 19.7 18.5 13.9 69 3.3 N 13 22 7 12 1020.9 1020.8 0.0
03/05:30pm 19.6 17.0 13.3 67 3.6 NNE 19 26 10 14 1020.8 1020.7 0.0
03/05:00pm 20.3 18.1 13.3 64 4.0 NNE 17 20 9 11 1020.9 1020.8 0.0
03/04:30pm 22.0 20.6 13.4 58 5.0 NNE 13 17 7 9 1020.8 1020.7 0.0
03/04:00pm 22.7 21.0 13.5 56 5.3 NNE 15 17 8 9 1020.7 1020.6 0.0
03/03:30pm 22.7 22.9 13.2 55 5.5 NNW 4 7 2 4 1020.7 1020.6 0.0
03/03:00pm 23.8 23.6 13.6 52 6.0 NNW 7 11 4 6 1020.7 1020.6 0.0
03/02:30pm 23.6 22.5 13.2 52 6.0 NNW 11 17 6 9 1020.8 1020.7 0.0
03/02:00pm 24.1 23.5 13.6 52 6.1 NNW 9 15 5 8 1021.0 1020.9 0.0
03/01:30pm 24.1 23.6 13.9 53 6.0 NNW 9 17 5 9 1021.4 1021.3 0.0
03/01:00pm 24.0 23.9 15.0 57 5.4 NNW 9 15 5 8 1021.6 1021.5 0.0
03/12:30pm 23.9 22.9 14.6 56 5.5 NNW 13 17 7 9 1022.2 1022.1 0.0
03/12:00pm 23.0 22.0 14.6 59 5.0 NNW 13 19 7 10 1022.7 1022.6 0.0
03/11:30am 21.9 20.6 13.8 60 4.7 NW 13 17 7 9 1023.2 1023.1 0.0
03/11:00am 21.5 20.0 14.2 63 4.3 NW 15 19 8 10 1023.7 1023.6 0.0
03/10:30am 21.2 20.4 13.9 63 4.2 WNW 11 15 6 8 1024.0 1023.9 0.0
03/10:00am 20.7 19.9 13.9 65 3.9 WNW 11 13 6 7 1024.0 1023.9 0.0
03/09:30am 20.0 19.1 13.7 67 3.6 WNW 11 15 6 8 1024.1 1024.0 0.0
03/09:00am 19.8 18.7 14.4 71 3.1 NW 13 15 7 8 1024.1 1024.0 0.0
03/08:30am 19.3 18.5 14.1 72 3.0 WNW 11 13 6 7 1023.8 1023.7 0.0
03/08:00am 18.8 17.6 14.1 74 2.7 NW 13 15 7 8 1023.7 1023.6 0.0
03/07:30am 17.8 16.3 14.1 79 2.1 NW 15 17 8 9 1023.4 1023.3 0.0
03/07:00am 18.0 16.3 13.7 76 2.4 WNW 15 17 8 9 1023.2 1023.1 0.0
03/06:30am 17.5 15.3 13.4 77 2.3 NW 17 17 9 9 1022.9 1022.8 0.0
03/06:00am 17.4 15.3 13.5 78 2.2 WNW 17 17 9 9 1022.5 1022.4 0.0
03/05:30am 17.4 15.3 13.7 79 2.1 WNW 17 19 9 10 1022.5 1022.4 0.0
03/05:00am 17.4 15.0 13.9 80 2.0 NW 19 20 10 11 1022.3 1022.2 0.0
03/04:30am 17.0 14.8 14.5 85 1.4 NW 19 20 10 11 1022.1 1022.0 0.0
03/04:00am 17.2 15.4 15.4 89 1.1 NNW 19 22 10 12 1022.0 1021.9 0.0
03/03:30am 17.5 16.0 15.3 87 1.3 NW 17 20 9 11 1022.2 1022.1 0.0
03/03:00am 17.5 15.8 15.7 89 1.1 NW 19 20 10 11 1022.4 1022.3 0.0
03/02:30am 17.3 15.6 15.8 91 0.9 NW 19 20 10 11 1022.5 1022.4 0.0
03/02:00am 17.2 15.8 15.5 90 1.0 NW 17 19 9 10 1022.5 1022.4 0.0
03/01:30am 17.2 15.7 15.4 89 1.1 NW 17 19 9 10 1022.7 1022.6 0.0
03/01:00am 17.3 15.5 15.5 89 1.1 NW 19 20 10 11 1022.9 1022.8 0.0
03/12:30am 17.5 16.2 15.7 89 1.1 NW 17 19 9 10 1023.0 1022.9 0.0
03/12:00am 17.4 16.1 15.7 90 1.0 NW 17 17 9 9 1023.1 1023.0 0.0
 
Date/Time
EST
Temp
°C
App
Temp
°C
Dew
Point
°C
Rel
Hum
%
Delta-T
°C
Wind Press
QNH
hPa
Press
MSL
hPa
Rain since
9am
mm
Dir  Spd
km/h
Gust
km/h
Spd
kts
Gust
kts
02/11:30pm 17.4 16.1 15.7 90 1.0 NW 17 20 9 11 1023.1 1023.0 0.0
02/11:00pm 18.0 17.4 15.6 86 1.4 NNW 13 19 7 10 1023.2 1023.1 0.0
02/10:30pm 18.4 18.4 14.1 76 2.5 NNE 7 17 4 9 1023.3 1023.2 0.0
02/10:00pm 18.6 16.2 14.5 77 2.4 NNE 20 28 11 15 1023.4 1023.3 0.0
02/09:30pm 18.6 15.9 14.5 77 2.4 NNE 22 28 12 15 1023.4 1023.3 0.0
02/09:00pm 18.7 16.5 14.8 78 2.3 NNE 20 26 11 14 1023.1 1023.0 0.0
02/08:30pm 18.7 16.6 15.2 80 2.1 NNE 20 26 11 14 1023.0 1022.9 0.0
02/08:00pm 18.5 16.4 14.8 79 2.2 NNE 19 24 10 13 1022.8 1022.7 0.0
02/07:30pm 18.4 16.2 14.5 78 2.3 NNE 19 22 10 12 1022.7 1022.6 0.0
02/07:00pm 18.5 16.9 14.0 75 2.6 NNE 15 20 8 11 1022.4 1022.3 0.0
02/06:30pm 18.4 17.0 14.5 78 2.3 NNE 15 20 8 11 1022.1 1022.0 0.0
02/06:00pm 18.5 16.4 15.2 81 1.9 NNE 20 24 11 13 1022.0 1021.9 0.0
02/05:30pm 18.6 16.5 14.7 78 2.3 NNE 19 24 10 13 1021.6 1021.5 0.0
02/05:00pm 19.1 17.4 14.6 75 2.6 NNE 17 20 9 11 1021.4 1021.3 0.0
02/04:30pm 20.3 18.3 14.0 67 3.7 NNE 17 22 9 12 1021.2 1021.1 0.0
02/04:00pm 21.1 19.3 14.5 66 3.9 NNE 17 22 9 12 1021.1 1021.0 0.0
02/03:30pm 21.5 20.4 14.4 64 4.2 NNE 13 17 7 9 1021.1 1021.0 0.0
02/03:00pm 21.5 21.6 15.6 69 3.5 NE 9 15 5 8 1021.0 1020.9 0.0
02/02:30pm 20.8 20.7 14.9 69 3.5 NE 9 15 5 8 1021.1 1021.0 0.0
02/02:00pm 21.4 21.5 15.5 69 3.5 NNE 9 11 5 6 1021.2 1021.1 0.0
02/01:30pm 20.7 20.1 14.6 68 3.6 NNE 11 17 6 9 1021.4 1021.3 0.0
02/01:00pm 21.4 22.1 15.5 69 3.5 NNE 6 9 3 5 1021.7 1021.6 0.0
02/12:30pm 20.0 20.9 15.2 74 2.8 NNE 4 7 2 4 1022.3 1022.2 0.0
02/12:00pm 20.1 21.1 15.3 74 2.8 N 4 7 2 4 1022.6 1022.5 0.0
02/11:30am 19.7 19.8 15.4 76 2.5 NNW 9 13 5 7 1022.9 1022.8 0.0
02/11:00am 19.1 19.8 16.0 82 1.8 S 7 11 4 6 1023.4 1023.3 0.0
02/10:30am 19.2 19.5 16.1 82 1.9 ESE 9 13 5 7 1023.6 1023.5 0.0
02/10:00am 18.5 18.8 15.9 85 1.5 SSE 9 13 5 7 1023.7 1023.6 0.0
02/09:30am 19.5 19.2 16.5 83 1.8 SSE 13 17 7 9 1023.6 1023.5 0.0
02/09:00am 19.0 19.3 14.9 77 2.4 NNE 7 9 4 5 1023.4 1023.3 0.0
02/08:30am 18.2 17.9 14.3 78 2.3 NNE 9 11 5 6 1023.5 1023.4 0.0
02/08:00am 17.4 17.6 14.1 81 1.9 NNE 6 7 3 4 1023.2 1023.1 0.0
02/07:30am 17.8 19.3 14.7 82 1.8 CALM 0 6 0 3 1023.0 1022.9 0.0
02/07:00am 17.1 17.2 14.0 82 1.8 NNE 6 7 3 4 1022.5 1022.4 0.0
02/06:30am 17.0 16.8 13.5 80 2.0 NNE 7 9 4 5 1022.2 1022.1 0.0
02/06:00am 17.0 16.4 13.5 80 2.0 NNE 9 11 5 6 1022.0 1021.9 0.0
02/05:30am 16.7 16.6 13.8 83 1.6 NNE 7 9 4 5 1021.5 1021.4 0.0
02/05:00am 17.0 16.7 14.3 84 1.5 NNE 9 11 5 6 1021.5 1021.4 0.0
02/04:30am 17.1 16.8 14.4 84 1.6 NNE 9 11 5 6 1021.4 1021.3 0.0
02/04:00am 17.2 16.6 14.7 85 1.4 NNE 11 13 6 7 1021.5 1021.4 0.0
02/03:30am 17.4 16.7 14.3 82 1.8 NNE 11 13 6 7 1021.5 1021.4 0.0
02/03:00am 17.4 16.8 14.5 83 1.7 NNE 11 13 6 7 1021.6 1021.5 0.0
02/02:30am 17.5 17.5 14.2 81 1.9 NNE 7 9 4 5 1021.4 1021.3 0.0
02/02:00am 17.9 17.3 13.4 75 2.5 NNE 9 17 5 9 1021.7 1021.6 0.0
02/01:30am 17.6 15.8 13.3 76 2.4 NNE 15 19 8 10 1021.7 1021.6 0.0
02/01:00am 17.8 16.9 13.7 77 2.3 NE 11 17 6 9 1022.0 1021.9 0.0
02/12:30am 17.6 17.1 13.7 78 2.2 NNE 9 15 5 8 1022.2 1022.1 0.0
02/12:00am 18.0 17.7 14.3 79 2.1 NE 9 15 5 8 1022.3 1022.2 0.0
 
Date/Time
EST
Temp
°C
App
Temp
°C
Dew
Point
°C
Rel
Hum
%
Delta-T
°C
Wind Press
QNH
hPa
Press
MSL
hPa
Rain since
9am
mm
Dir  Spd
km/h
Gust
km/h
Spd
kts
Gust
kts
01/11:30pm 18.0 16.8 14.1 78 2.2 ENE 13 17 7 9 1022.2 1022.1 0.0
01/11:00pm 18.1 16.6 14.2 78 2.2 E 15 19 8 10 1022.5 1022.4 0.0
01/10:30pm 18.1 16.1 14.0 77 2.4 E 17 20 9 11 1022.7 1022.6 0.0
01/10:00pm 17.8 15.9 13.1 74 2.6 E 15 20 8 11 1022.7 1022.6 0.0
01/09:30pm 17.8 16.4 13.3 75 2.5 ESE 13 17 7 9 1022.7 1022.6 0.0
01/09:00pm 17.7 16.2 13.2 75 2.5 E 13 17 7 9 1022.7 1022.6 0.0
01/08:30pm 17.6 16.2 13.3 76 2.4 NE 13 19 7 10 1022.6 1022.5 0.0
01/08:00pm 17.7 15.9 13.2 75 2.5 NE 15 20 8 11 1022.4 1022.3 0.0
01/07:30pm 17.6 16.2 13.3 76 2.4 ENE 13 19 7 10 1022.4 1022.3 0.0
01/07:00pm 17.6 15.5 13.5 77 2.3 ENE 17 20 9 11 1022.2 1022.1 0.0
01/06:30pm 18.1 16.1 12.8 71 3.0 E 15 20 8 11 1021.7 1021.6 0.0
01/06:00pm 17.7 15.4 11.9 69 3.2 ESE 15 19 8 10 1021.2 1021.1 0.0
01/05:30pm 17.6 15.4 12.1 70 3.0 ESE 15 17 8 9 1020.9 1020.8 0.0
01/05:00pm 17.9 15.8 12.4 70 3.1 E 15 20 8 11 1020.6 1020.5 0.0
01/04:30pm 18.1 15.5 12.1 68 3.3 ESE 17 20 9 11 1020.8 1020.7 0.0
01/04:00pm 18.3 15.3 12.1 67 3.4 ESE 19 24 10 13 1020.7 1020.6 0.0

Other formats

Comma delimited format used in spreadsheet applications
http://www.bom.gov.au/fwo/IDQ60801/IDQ60801.94584.axf

JavaScript Object Notation format (JSON) in row-major order
http://www.bom.gov.au/fwo/IDQ60801/IDQ60801.94584.json

Data quality

Most of these data are generated automatically and are frequently updated. Quality checks on data are not normally performed. It is possible for incorrect values to appear. Refer to information at About Latest Weather Observations and please check the disclaimer before using these data.